KESF/ESF METAR and TAF weather

Enter ICAO airport designator
Station Type Date Time Source
KESF METAR 2019/07/20 04:53 UTC NOAA

KESF 200453Z AUTO 00000KT 10SM CLR 26/24 A3001 RMK AO2 SLP161 T02560239


Station Type Date Time Source
KESF Decoded METAR 2019/07/20 04:53 UTC NOAA

ALEXANDRIA ESLER RGNL AIRPORT , LA, United States (KESF) 31-24N 092-18W 28M
Jul 20, 2019 - 12:53 AM EDT / 2019.07.20 0453 UTC
Wind: Calm:0
Visibility: 10 mile(s):0
Sky conditions: clear
Temperature: 78.1 F (25.6 C)
Dew Point: 75.0 F (23.9 C)
Relative Humidity: 90%
Pressure (altimeter): 30.01 in. Hg (1016 hPa)
ob: KESF 200453Z AUTO 00000KT 10SM CLR 26/24 A3001 RMK AO2 SLP161 T02560239
cycle: 5

Station Type Date Time Source
KESF TAF UTC NOAA

Error!

Example: see airport list